Time;durP1;ratioP1;P1;durP2;ratioP2;P2;SDS_P1;SDS_P2;PMS_P1;PMS_P2;Temp;Humidity;BMP_temperature;BMP_pressure;BME280_temperature;BME280_humidity;BME280_pressure;Samples;Min_cycle;Max_cycle;Signal;HPM_P1;HPM_P2
2023/12/28 00:02:04;;;;;;;2.13;1.35;;;8.80;99.90;;;;;;4998364;28;20026;-57
2023/12/28 00:04:30;;;;;;;9.15;2.47;;;8.70;99.90;;;;;;4995587;28;20029;-57
2023/12/28 00:06:56;;;;;;;4.45;1.52;;;8.80;99.90;;;;;;4995705;28;20405;-56
2023/12/28 00:09:21;;;;;;;3.25;1.60;;;8.80;99.90;;;;;;4979290;28;20109;-58
2023/12/28 00:11:47;;;;;;;3.80;1.23;;;8.70;99.90;;;;;;5005698;28;20033;-57
2023/12/28 00:14:13;;;;;;;1.98;1.30;;;8.70;99.90;;;;;;4999227;28;20073;-58
2023/12/28 00:16:38;;;;;;;2.67;1.45;;;8.70;99.90;;;;;;4994519;28;20034;-57
2023/12/28 00:19:04;;;;;;;3.67;1.45;;;8.70;99.90;;;;;;4995258;28;20027;-58
2023/12/28 00:21:30;;;;;;;4.75;1.13;;;8.70;99.90;;;;;;4994874;28;20488;-57
2023/12/28 00:23:56;;;;;;;2.33;1.20;;;8.70;99.90;;;;;;4998599;28;20050;-57
2023/12/28 00:26:22;;;;;;;2.75;1.33;;;8.70;99.90;;;;;;4998569;28;20093;-58
2023/12/28 00:28:47;;;;;;;4.60;1.20;;;8.60;99.90;;;;;;4999804;28;20061;-57
2023/12/28 00:31:13;;;;;;;4.53;1.75;;;8.70;99.90;;;;;;4998001;28;20369;-58
2023/12/28 00:33:39;;;;;;;2.85;1.45;;;8.60;99.90;;;;;;4994325;28;20457;-56
2023/12/28 00:36:04;;;;;;;4.90;1.67;;;8.60;99.90;;;;;;4996352;28;20093;-54
2023/12/28 00:38:30;;;;;;;3.30;1.92;;;8.50;99.90;;;;;;4997632;28;20034;-55
2023/12/28 00:40:57;;;;;;;2.92;1.52;;;8.50;99.90;;;;;;4982956;28;20093;-57
2023/12/28 00:43:23;;;;;;;5.57;1.17;;;8.40;99.90;;;;;;5001979;28;20392;-57
2023/12/28 00:45:48;;;;;;;4.18;1.30;;;8.30;99.90;;;;;;5002723;28;20030;-57
2023/12/28 00:48:14;;;;;;;2.90;1.20;;;8.20;99.90;;;;;;4998423;28;20444;-57
2023/12/28 00:50:40;;;;;;;2.22;1.23;;;8.20;99.90;;;;;;4992694;28;20065;-58
2023/12/28 00:53:05;;;;;;;4.32;1.20;;;8.10;99.90;;;;;;5000112;28;20069;-57
2023/12/28 00:55:31;;;;;;;4.18;1.27;;;8.10;99.90;;;;;;4995138;28;20046;-56
2023/12/28 00:57:57;;;;;;;2.20;1.20;;;8.10;99.90;;;;;;4996609;28;20038;-55
2023/12/28 01:00:22;;;;;;;3.47;1.17;;;8.00;99.90;;;;;;4996951;28;20026;-56
2023/12/28 01:02:49;;;;;;;2.17;1.10;;;8.00;99.90;;;;;;4999243;28;20465;-55
2023/12/28 01:05:14;;;;;;;3.50;1.08;;;8.10;99.90;;;;;;4992469;28;20030;-53
2023/12/28 01:07:40;;;;;;;3.72;1.65;;;8.10;99.90;;;;;;4995442;28;20109;-53
2023/12/28 01:10:06;;;;;;;4.25;1.30;;;8.10;99.90;;;;;;4995297;28;20038;-53
2023/12/28 01:12:33;;;;;;;5.72;1.25;;;8.10;99.90;;;;;;4994478;28;20026;-54
2023/12/28 01:14:59;;;;;;;4.90;1.40;;;8.10;99.90;;;;;;5000112;28;20030;-55
2023/12/28 01:17:25;;;;;;;1.77;0.95;;;8.20;99.90;;;;;;4995438;28;20528;-54
2023/12/28 01:19:50;;;;;;;2.05;1.00;;;8.20;99.90;;;;;;4995078;28;20029;-55
2023/12/28 01:22:16;;;;;;;1.70;0.90;;;8.20;99.90;;;;;;4991765;28;20026;-56
2023/12/28 01:24:41;;;;;;;2.63;1.10;;;8.30;99.90;;;;;;4997911;28;20116;-54
2023/12/28 01:27:07;;;;;;;4.78;1.00;;;8.30;99.90;;;;;;4992469;28;20022;-54
2023/12/28 01:29:34;;;;;;;2.80;0.95;;;8.20;99.90;;;;;;4998372;28;20034;-54
2023/12/28 01:32:06;;;;;;;3.20;1.00;;;8.30;99.90;;;;;;4991207;28;20044;-56
2023/12/28 01:34:32;;;;;;;3.65;1.23;;;8.30;99.90;;;;;;4999512;28;20026;-57
2023/12/28 01:36:58;;;;;;;3.92;1.17;;;8.30;99.90;;;;;;5002171;28;20042;-56
2023/12/28 01:39:23;;;;;;;5.28;1.10;;;8.40;99.90;;;;;;4997447;28;20049;-57
2023/12/28 01:41:49;;;;;;;2.00;1.25;;;8.40;99.90;;;;;;4998341;28;20514;-53
2023/12/28 01:44:15;;;;;;;1.85;1.00;;;8.40;99.90;;;;;;4994700;28;20026;-54
2023/12/28 01:46:41;;;;;;;1.52;0.82;;;8.40;99.90;;;;;;4999272;28;20064;-56
2023/12/28 01:49:07;;;;;;;0.98;0.65;;;8.50;99.90;;;;;;4999978;28;20030;-56
2023/12/28 01:51:33;;;;;;;0.90;0.60;;;8.50;99.90;;;;;;4999441;28;20031;-57
2023/12/28 01:53:59;;;;;;;1.92;0.70;;;8.60;99.90;;;;;;4996949;28;20022;-55
2023/12/28 01:56:25;;;;;;;2.72;0.82;;;8.60;99.90;;;;;;4994951;28;20026;-53
2023/12/28 01:58:54;;;;;;;1.77;0.80;;;8.60;99.90;;;;;;4999127;28;20030;-53
2023/12/28 02:01:20;;;;;;;2.25;0.80;;;8.60;99.90;;;;;;4991565;28;20023;-56
2023/12/28 02:03:46;;;;;;;2.00;1.00;;;8.60;99.90;;;;;;4993807;28;20471;-54
2023/12/28 02:06:16;;;;;;;1.52;0.85;;;8.60;99.90;;;;;;4992670;28;20060;-56
2023/12/28 02:08:42;;;;;;;2.00;0.98;;;8.70;99.90;;;;;;4993569;28;20022;-54
2023/12/28 02:11:07;;;;;;;1.38;0.90;;;8.60;99.90;;;;;;4990900;28;20022;-55
2023/12/28 02:13:33;;;;;;;1.40;0.77;;;8.70;99.90;;;;;;4990663;28;20077;-57
2023/12/28 02:16:10;;;;;;;2.08;1.20;;;8.70;99.90;;;;;;4994263;28;20022;-57
2023/12/28 02:18:42;;;;;;;1.40;1.00;;;8.70;99.90;;;;;;4996941;28;20152;-55
2023/12/28 02:21:08;;;;;;;6.82;1.00;;;8.60;99.90;;;;;;4996071;28;20031;-57
2023/12/28 02:23:34;;;;;;;4.57;1.00;;;8.60;99.90;;;;;;4993523;28;20042;-55
2023/12/28 02:26:00;;;;;;;2.50;0.70;;;8.60;99.90;;;;;;4993485;28;20022;-55
2023/12/28 02:28:26;;;;;;;2.30;0.90;;;8.60;99.90;;;;;;4995934;28;20045;-55
2023/12/28 02:30:52;;;;;;;7.15;1.83;;;8.60;99.90;;;;;;4991800;28;20030;-56
2023/12/28 02:33:48;;;;;;;3.45;1.00;;;8.50;99.90;;;;;;4998676;28;20022;-57
2023/12/28 02:36:18;;;;;;;1.77;0.98;;;8.60;99.90;;;;;;4992984;28;20065;-54
2023/12/28 02:38:46;;;;;;;4.45;0.90;;;8.60;99.90;;;;;;4990938;28;20108;-54
2023/12/28 02:41:12;;;;;;;1.67;1.00;;;8.50;99.90;;;;;;4991663;28;20027;-52
2023/12/28 02:43:38;;;;;;;2.60;0.75;;;8.50;99.90;;;;;;4995370;28;20031;-51
2023/12/28 02:46:04;;;;;;;3.38;1.20;;;8.50;99.90;;;;;;4995753;28;20033;-54
2023/12/28 02:48:29;;;;;;;1.50;0.90;;;8.50;99.90;;;;;;4991371;28;20022;-54
2023/12/28 02:50:55;;;;;;;3.30;1.27;;;8.50;99.90;;;;;;4991203;28;20029;-57
2023/12/28 02:53:21;;;;;;;2.97;1.13;;;8.50;99.90;;;;;;4991989;28;20023;-51
2023/12/28 02:55:46;;;;;;;1.98;0.90;;;8.40;99.90;;;;;;4991806;28;20039;-51
2023/12/28 02:58:12;;;;;;;3.47;1.08;;;8.40;99.90;;;;;;4990844;28;20034;-52
2023/12/28 03:00:37;;;;;;;1.80;0.80;;;8.40;99.90;;;;;;4993976;28;20081;-56
2023/12/28 03:03:03;;;;;;;3.28;1.20;;;8.40;99.90;;;;;;4992419;28;20515;-55
2023/12/28 03:05:29;;;;;;;3.75;1.13;;;8.40;99.90;;;;;;4989636;28;20037;-53
2023/12/28 03:07:55;;;;;;;2.03;0.80;;;8.40;99.90;;;;;;4990739;28;20121;-54
2023/12/28 03:10:21;;;;;;;1.85;1.00;;;8.40;99.90;;;;;;4991355;28;20026;-53
2023/12/28 03:12:46;;;;;;;1.35;1.00;;;8.40;99.90;;;;;;4990340;28;20101;-54
2023/12/28 03:15:13;;;;;;;1.80;1.00;;;8.40;99.90;;;;;;4982683;28;20050;-56
2023/12/28 03:17:38;;;;;;;5.25;1.02;;;8.50;99.90;;;;;;4990613;28;20026;-55
2023/12/28 03:20:05;;;;;;;1.92;1.00;;;8.50;99.90;;;;;;4990827;28;20164;-56
2023/12/28 03:22:30;;;;;;;2.88;1.15;;;8.40;99.90;;;;;;4990312;28;20076;-56
2023/12/28 03:24:56;;;;;;;1.58;0.80;;;8.40;99.90;;;;;;4991372;28;20416;-51
2023/12/28 03:27:21;;;;;;;1.38;1.00;;;8.40;99.90;;;;;;4990794;28;20022;-55
2023/12/28 03:29:47;;;;;;;0.73;0.50;;;8.30;99.90;;;;;;4994154;28;20064;-52
2023/12/28 03:32:14;;;;;;;2.20;0.95;;;8.30;99.90;;;;;;4990908;28;20061;-54
2023/12/28 03:34:39;;;;;;;1.83;0.95;;;8.20;99.90;;;;;;4992605;28;20400;-51
2023/12/28 03:37:05;;;;;;;2.80;1.02;;;8.20;99.90;;;;;;4992625;28;20047;-54
2023/12/28 03:39:31;;;;;;;6.70;1.73;;;8.20;99.90;;;;;;4984756;28;20043;-54
2023/12/28 03:41:56;;;;;;;1.42;0.90;;;8.20;99.90;;;;;;4991762;28;20085;-55
2023/12/28 03:44:22;;;;;;;2.50;1.10;;;8.20;99.90;;;;;;4990861;28;20029;-55
2023/12/28 03:46:49;;;;;;;3.63;0.90;;;8.10;99.90;;;;;;4990485;28;20085;-55
2023/12/28 03:49:21;;;;;;;1.70;0.80;;;8.20;99.90;;;;;;4990390;28;20030;-54
2023/12/28 03:51:49;;;;;;;2.35;1.30;;;8.10;99.90;;;;;;4990616;28;20038;-55
2023/12/28 03:54:18;;;;;;;1.25;0.90;;;8.10;99.90;;;;;;4974114;28;20034;-53
2023/12/28 03:56:44;;;;;;;1.70;1.10;;;8.10;99.90;;;;;;4990603;28;20030;-57
2023/12/28 03:59:10;;;;;;;2.20;0.95;;;8.00;99.90;;;;;;4995645;28;20030;-54
2023/12/28 04:01:35;;;;;;;1.40;0.82;;;7.90;99.90;;;;;;4993565;28;20373;-53
2023/12/28 04:04:01;;;;;;;1.83;0.90;;;7.90;99.90;;;;;;4994801;28;20031;-56
2023/12/28 04:06:27;;;;;;;3.20;1.10;;;7.90;99.90;;;;;;4993231;28;20030;-54
2023/12/28 04:08:52;;;;;;;3.75;1.00;;;7.80;99.90;;;;;;4993613;28;20025;-56
2023/12/28 04:11:18;;;;;;;1.70;0.68;;;7.80;99.90;;;;;;4990825;28;20420;-52
2023/12/28 04:13:44;;;;;;;1.63;0.80;;;7.80;99.90;;;;;;4990252;28;20433;-54
2023/12/28 04:16:15;;;;;;;2.35;1.10;;;7.70;99.90;;;;;;4996213;28;20069;-54
2023/12/28 04:18:42;;;;;;;2.63;1.25;;;7.70;99.90;;;;;;4990603;28;20500;-55
2023/12/28 04:21:12;;;;;;;2.25;1.33;;;7.70;99.90;;;;;;4992657;28;20439;-55
2023/12/28 04:23:38;;;;;;;1.80;1.00;;;7.70;99.90;;;;;;4989541;28;20069;-56
2023/12/28 04:26:04;;;;;;;1.48;1.02;;;7.70;99.90;;;;;;4992877;28;20034;-53
2023/12/28 04:28:30;;;;;;;1.92;1.13;;;7.70;99.90;;;;;;5001535;28;20105;-55
2023/12/28 04:30:56;;;;;;;5.15;1.20;;;7.70;99.90;;;;;;4993170;28;20034;-55
2023/12/28 04:33:22;;;;;;;1.80;0.93;;;7.60;99.90;;;;;;4993025;28;20029;-54
2023/12/28 04:35:47;;;;;;;1.70;0.82;;;7.60;99.90;;;;;;4993932;28;20117;-52
2023/12/28 04:38:13;;;;;;;2.05;1.02;;;7.60;99.90;;;;;;4950898;28;20062;-51
2023/12/28 04:40:39;;;;;;;1.73;1.05;;;7.60;99.90;;;;;;5006105;28;20532;-52
2023/12/28 04:43:04;;;;;;;2.55;1.08;;;7.60;99.90;;;;;;4998304;28;20120;-55
2023/12/28 04:45:30;;;;;;;1.88;0.93;;;7.60;99.90;;;;;;5010400;28;20109;-54
2023/12/28 04:47:55;;;;;;;1.45;1.05;;;7.60;99.90;;;;;;5010586;28;20531;-52
2023/12/28 04:50:21;;;;;;;2.00;1.25;;;7.60;99.90;;;;;;4992119;28;20377;-55
2023/12/28 04:52:47;;;;;;;1.67;0.82;;;7.60;99.90;;;;;;4998237;28;20033;-54
2023/12/28 04:55:12;;;;;;;2.65;1.10;;;7.60;99.90;;;;;;5008725;28;20044;-55
2023/12/28 04:57:38;;;;;;;3.08;1.20;;;7.60;99.90;;;;;;5013945;28;20025;-54
2023/12/28 05:00:04;;;;;;;1.95;1.00;;;7.60;99.90;;;;;;4996595;28;20069;-55
2023/12/28 05:02:30;;;;;;;4.95;1.10;;;7.60;99.90;;;;;;4994470;28;20054;-55
2023/12/28 05:04:55;;;;;;;1.70;1.10;;;7.70;99.90;;;;;;4994869;28;20420;-55
2023/12/28 05:07:21;;;;;;;2.03;1.02;;;7.70;99.90;;;;;;4999197;28;20091;-55
2023/12/28 05:09:47;;;;;;;2.35;1.10;;;7.70;99.90;;;;;;4999947;28;20051;-53
2023/12/28 05:12:12;;;;;;;4.75;1.42;;;7.60;99.90;;;;;;4991958;28;20029;-53
2023/12/28 05:14:38;;;;;;;2.85;1.13;;;7.60;99.90;;;;;;4997248;28;20034;-52
2023/12/28 05:17:03;;;;;;;4.28;1.20;;;7.50;99.90;;;;;;4996363;28;20564;-55
2023/12/28 05:19:29;;;;;;;1.30;1.20;;;7.50;99.90;;;;;;4992698;28;20018;-52
2023/12/28 05:21:55;;;;;;;2.08;1.05;;;7.50;99.90;;;;;;4997130;28;20029;-53
2023/12/28 05:24:20;;;;;;;2.58;1.13;;;7.50;99.90;;;;;;4941257;28;20047;-55
2023/12/28 05:26:46;;;;;;;6.40;1.70;;;7.50;99.90;;;;;;4969279;28;20042;-55
2023/12/28 05:29:12;;;;;;;2.67;1.50;;;7.50;99.90;;;;;;4970062;28;20042;-55
2023/12/28 05:31:37;;;;;;;2.63;1.17;;;7.50;99.90;;;;;;4968013;28;20062;-57
2023/12/28 05:34:04;;;;;;;4.20;1.92;;;7.60;99.90;;;;;;4970302;28;20035;-55
2023/12/28 05:36:29;;;;;;;3.60;1.42;;;7.60;99.90;;;;;;4953639;28;20025;-53
2023/12/28 05:38:55;;;;;;;2.20;1.02;;;7.60;99.90;;;;;;4964761;28;20046;-53
2023/12/28 05:41:20;;;;;;;5.22;1.17;;;7.50;99.90;;;;;;4960666;28;20063;-56
2023/12/28 05:43:46;;;;;;;4.28;1.50;;;7.50;99.90;;;;;;4968227;28;20105;-53
2023/12/28 05:46:12;;;;;;;3.33;1.60;;;7.50;99.90;;;;;;4961509;28;20027;-52
2023/12/28 05:48:37;;;;;;;2.78;1.27;;;7.50;99.90;;;;;;4970018;28;20069;-52
2023/12/28 05:51:03;;;;;;;3.17;1.40;;;7.50;99.90;;;;;;4954787;28;20042;-54
2023/12/28 05:53:29;;;;;;;4.70;1.67;;;7.50;99.90;;;;;;4961541;28;20505;-52
2023/12/28 05:55:54;;;;;;;2.75;1.20;;;7.50;99.90;;;;;;4982895;28;20117;-52
2023/12/28 05:58:20;;;;;;;2.72;1.27;;;7.40;99.90;;;;;;4991642;28;20044;-54
2023/12/28 06:00:48;;;;;;;4.93;1.70;;;7.40;99.90;;;;;;4978711;28;20108;-52
2023/12/28 06:03:14;;;;;;;3.20;1.40;;;7.40;99.90;;;;;;4998551;28;20018;-52
2023/12/28 06:05:40;;;;;;;3.08;1.08;;;7.40;99.90;;;;;;4992087;28;20089;-55
2023/12/28 06:08:06;;;;;;;2.80;1.23;;;7.30;99.90;;;;;;4999916;28;20030;-55
2023/12/28 06:10:32;;;;;;;4.10;1.55;;;7.30;99.90;;;;;;4991673;28;20168;-53
2023/12/28 06:12:57;;;;;;;2.97;1.00;;;7.30;99.90;;;;;;4991054;28;20035;-58
2023/12/28 06:15:23;;;;;;;2.53;1.13;;;7.30;99.90;;;;;;4995296;28;20037;-56
2023/12/28 06:17:49;;;;;;;5.45;1.15;;;7.30;99.90;;;;;;4991852;28;20065;-57
2023/12/28 06:20:15;;;;;;;3.45;1.05;;;7.30;99.90;;;;;;4994957;28;20069;-55
2023/12/28 06:22:40;;;;;;;5.72;1.42;;;7.30;99.90;;;;;;4991286;28;20541;-57
2023/12/28 06:25:06;;;;;;;2.78;1.33;;;7.30;99.90;;;;;;4991709;28;20491;-55
2023/12/28 06:27:32;;;;;;;4.32;1.55;;;7.20;99.90;;;;;;4993569;28;20044;-55
2023/12/28 06:29:58;;;;;;;3.33;1.30;;;7.10;99.90;;;;;;4995251;28;20049;-51
2023/12/28 06:32:24;;;;;;;4.53;0.98;;;7.20;99.90;;;;;;4991088;28;20051;-52
2023/12/28 06:34:49;;;;;;;2.72;1.50;;;7.10;99.90;;;;;;4991879;28;20027;-56
2023/12/28 06:37:15;;;;;;;2.72;1.17;;;7.10;99.90;;;;;;4992649;28;20026;-56
2023/12/28 06:39:40;;;;;;;5.07;1.48;;;7.10;99.90;;;;;;4991493;28;20427;-51
2023/12/28 06:42:06;;;;;;;3.97;1.40;;;7.00;99.90;;;;;;4995168;28;20022;-54
2023/12/28 06:44:32;;;;;;;3.55;1.60;;;6.90;99.90;;;;;;4993869;28;20027;-56
2023/12/28 06:46:58;;;;;;;2.83;1.48;;;6.80;99.90;;;;;;4980753;28;20026;-55
2023/12/28 06:49:24;;;;;;;3.28;1.23;;;6.80;99.90;;;;;;4995923;28;20030;-54
2023/12/28 06:51:50;;;;;;;2.30;1.13;;;6.80;99.90;;;;;;5007433;23;20397;-54
2023/12/28 06:54:16;;;;;;;3.90;1.45;;;6.70;99.90;;;;;;5010439;28;20124;-54
2023/12/28 06:56:41;;;;;;;5.13;1.52;;;6.80;99.90;;;;;;5010357;28;20030;-51
2023/12/28 06:59:11;;;;;;;4.43;1.40;;;6.70;99.90;;;;;;5010579;28;20030;-54
2023/12/28 07:01:40;;;;;;;5.72;1.42;;;6.70;99.90;;;;;;5010752;28;20431;-50
2023/12/28 07:04:06;;;;;;;4.93;1.42;;;6.70;99.90;;;;;;5009741;28;20036;-51
2023/12/28 07:06:31;;;;;;;7.25;1.33;;;6.70;99.90;;;;;;5011440;28;20025;-52
2023/12/28 07:08:57;;;;;;;1.92;1.35;;;6.70;99.90;;;;;;5013398;28;20045;-50
2023/12/28 07:11:22;;;;;;;1.92;1.20;;;6.70;99.90;;;;;;5011509;28;20518;-51
2023/12/28 07:13:48;;;;;;;3.08;1.33;;;6.70;99.90;;;;;;5013428;28;20056;-51
2023/12/28 07:16:15;;;;;;;3.53;1.58;;;6.70;99.90;;;;;;5010244;28;20109;-55
2023/12/28 07:18:41;;;;;;;4.13;1.70;;;6.60;99.90;;;;;;5013830;28;20116;-52
2023/12/28 07:21:10;;;;;;;8.45;2.25;;;6.60;99.90;;;;;;5014164;28;20038;-53
2023/12/28 07:23:36;;;;;;;4.05;2.33;;;6.60;99.90;;;;;;5013531;28;20021;-51
2023/12/28 07:26:02;;;;;;;9.02;2.35;;;6.60;99.90;;;;;;5004200;28;20373;-53
2023/12/28 07:28:28;;;;;;;3.85;2.13;;;6.70;99.90;;;;;;5010052;28;20018;-51
2023/12/28 07:30:54;;;;;;;6.55;2.13;;;6.70;99.90;;;;;;5010203;28;20065;-52
2023/12/28 07:33:20;;;;;;;5.88;1.60;;;6.80;99.90;;;;;;5007877;28;20115;-57
2023/12/28 07:35:46;;;;;;;3.60;1.50;;;7.00;99.90;;;;;;5009147;28;20112;-53
2023/12/28 07:38:11;;;;;;;3.17;1.17;;;7.00;99.90;;;;;;5009950;28;20512;-50
2023/12/28 07:40:37;;;;;;;3.67;1.40;;;7.10;99.90;;;;;;5007697;28;20034;-52
2023/12/28 07:43:03;;;;;;;2.20;1.55;;;7.20;99.90;;;;;;5006653;28;20506;-54
2023/12/28 07:45:29;;;;;;;5.07;1.58;;;7.20;99.90;;;;;;5006070;28;20022;-51
2023/12/28 07:47:54;;;;;;;2.10;1.00;;;7.20;99.90;;;;;;5007329;28;20903;-51
2023/12/28 07:50:20;;;;;;;6.03;1.50;;;7.10;99.90;;;;;;5012167;28;20059;-54
2023/12/28 07:52:46;;;;;;;6.22;1.63;;;7.10;99.90;;;;;;5009862;28;20057;-53
2023/12/28 07:55:12;;;;;;;4.35;1.88;;;7.00;99.90;;;;;;5012985;28;20030;-51
2023/12/28 07:57:38;;;;;;;2.78;1.27;;;7.00;99.90;;;;;;5009140;28;20041;-49
2023/12/28 08:00:05;;;;;;;2.88;1.50;;;6.90;99.90;;;;;;5011964;28;20387;-55
2023/12/28 08:02:31;;;;;;;6.68;2.17;;;6.90;99.90;;;;;;5012520;28;20026;-54
2023/12/28 08:04:56;;;;;;;7.43;2.90;;;6.90;99.90;;;;;;5015336;28;20026;-50
2023/12/28 08:07:22;;;;;;;10.23;2.58;;;6.80;99.90;;;;;;5013636;28;20037;-55
2023/12/28 08:09:47;;;;;;;7.18;1.90;;;6.80;99.90;;;;;;5019432;28;20049;-50
2023/12/28 08:12:13;;;;;;;11.85;2.10;;;6.80;99.90;;;;;;5011530;28;20357;-55
2023/12/28 08:14:39;;;;;;;18.42;5.68;;;6.70;99.90;;;;;;5013631;28;20018;-50
2023/12/28 08:17:04;;;;;;;8.45;2.55;;;6.70;99.90;;;;;;5014540;28;20026;-51
2023/12/28 08:19:30;;;;;;;3.20;1.38;;;6.70;99.90;;;;;;5008125;28;20018;-53
2023/12/28 08:21:55;;;;;;;5.20;2.00;;;6.70;99.90;;;;;;5012258;28;21501;-53
2023/12/28 08:24:21;;;;;;;10.18;2.58;;;6.70;99.90;;;;;;5013269;28;20018;-53
2023/12/28 08:26:47;;;;;;;11.82;2.85;;;6.70;99.90;;;;;;5012694;28;20076;-50
2023/12/28 08:29:12;;;;;;;6.25;3.25;;;6.70;99.90;;;;;;5007500;28;20097;-50
2023/12/28 08:31:38;;;;;;;8.80;2.58;;;6.70;99.90;;;;;;5011131;28;20495;-55
2023/12/28 08:34:04;;;;;;;4.75;1.77;;;6.80;99.90;;;;;;5010967;28;20417;-55
2023/12/28 08:36:29;;;;;;;2.70;1.60;;;7.00;99.90;;;;;;5012425;28;20159;-55
2023/12/28 08:38:55;;;;;;;2.00;1.20;;;7.10;99.90;;;;;;5017600;28;20402;-55
2023/12/28 08:41:23;;;;;;;4.20;1.70;;;7.30;99.90;;;;;;5013584;28;20027;-56
2023/12/28 08:43:49;;;;;;;4.63;1.38;;;7.40;99.90;;;;;;5006019;28;20045;-54
2023/12/28 08:46:15;;;;;;;4.22;1.75;;;7.50;99.90;;;;;;5009797;28;20495;-51
2023/12/28 08:48:41;;;;;;;2.25;1.02;;;7.70;99.90;;;;;;5013254;28;20030;-50
2023/12/28 08:51:09;;;;;;;3.90;1.92;;;7.80;99.90;;;;;;5018775;28;20029;-51
2023/12/28 08:53:34;;;;;;;8.25;2.67;;;7.90;99.90;;;;;;5011073;28;20487;-49
2023/12/28 08:56:00;;;;;;;2.35;1.02;;;8.00;99.90;;;;;;5016851;28;20026;-50
2023/12/28 08:58:25;;;;;;;8.38;2.08;;;8.10;99.90;;;;;;5018254;28;20036;-55
2023/12/28 09:00:51;;;;;;;3.03;1.50;;;8.10;99.90;;;;;;5009694;28;20018;-55
2023/12/28 09:03:17;;;;;;;7.25;1.73;;;8.30;99.90;;;;;;5013442;28;20541;-51
2023/12/28 09:05:43;;;;;;;2.15;1.20;;;8.40;99.90;;;;;;5012113;28;20114;-49
2023/12/28 09:08:08;;;;;;;3.33;1.30;;;8.50;99.90;;;;;;5008159;28;20029;-56
2023/12/28 09:10:34;;;;;;;5.22;1.30;;;8.50;99.90;;;;;;5008682;28;20029;-54
2023/12/28 09:13:00;;;;;;;7.50;2.00;;;8.60;99.90;;;;;;5009438;28;20034;-55
2023/12/28 09:15:25;;;;;;;4.28;1.25;;;8.70;99.90;;;;;;5006881;28;20100;-55
2023/12/28 09:17:51;;;;;;;2.35;1.52;;;8.80;99.90;;;;;;5012691;28;20109;-50
2023/12/28 09:20:18;;;;;;;4.50;1.52;;;8.90;99.90;;;;;;5009069;28;20022;-50
2023/12/28 09:22:44;;;;;;;8.73;2.65;;;8.90;99.90;;;;;;4993495;28;20053;-51
2023/12/28 09:25:09;;;;;;;18.55;5.88;;;9.00;99.90;;;;;;5013122;28;20030;-51
2023/12/28 09:27:35;;;;;;;55.60;13.25;;;9.10;99.90;;;;;;5016558;28;20562;-51
2023/12/28 09:30:00;;;;;;;12.50;3.75;;;9.30;99.90;;;;;;5014745;28;20037;-53
2023/12/28 09:32:26;;;;;;;9.90;3.58;;;9.40;99.90;;;;;;5013411;28;20036;-52
2023/12/28 09:34:51;;;;;;;12.88;3.75;;;9.40;99.90;;;;;;5010676;28;20488;-53
2023/12/28 09:37:17;;;;;;;14.35;3.97;;;9.40;99.90;;;;;;5017482;28;20356;-56
2023/12/28 09:39:44;;;;;;;22.00;9.52;;;9.40;99.90;;;;;;5009819;28;20105;-55
2023/12/28 09:42:17;;;;;;;14.45;6.15;;;9.40;99.90;;;;;;4991156;28;20026;-55
2023/12/28 09:44:43;;;;;;;6.07;2.38;;;9.50;99.90;;;;;;5016464;28;20014;-56
2023/12/28 09:47:12;;;;;;;4.28;2.20;;;9.50;99.90;;;;;;5011317;28;20496;-55
2023/12/28 09:49:40;;;;;;;7.80;1.75;;;9.60;99.90;;;;;;5009169;28;20384;-53
2023/12/28 09:52:06;;;;;;;6.30;3.55;;;9.60;99.90;;;;;;5009641;28;20030;-54
2023/12/28 09:54:32;;;;;;;3.33;1.52;;;9.70;99.90;;;;;;5007108;28;20022;-55
2023/12/28 09:56:58;;;;;;;12.23;2.10;;;9.80;99.90;;;;;;5007790;28;20034;-57
2023/12/28 09:59:24;;;;;;;6.20;2.10;;;9.80;99.90;;;;;;4983825;28;20046;-57
2023/12/28 10:01:50;;;;;;;1.80;1.55;;;9.90;99.90;;;;;;4985085;28;20030;-55
2023/12/28 10:04:16;;;;;;;3.78;1.27;;;10.00;99.90;;;;;;5007603;28;20030;-53
2023/12/28 10:06:42;;;;;;;3.90;1.52;;;10.00;99.90;;;;;;5008714;28;20312;-54
2023/12/28 10:09:08;;;;;;;16.38;5.15;;;10.10;99.90;;;;;;5007608;28;20492;-51
2023/12/28 10:11:34;;;;;;;8.77;3.10;;;10.20;99.90;;;;;;5009855;28;20028;-54
2023/12/28 10:13:59;;;;;;;8.25;3.50;;;10.30;99.90;;;;;;5009186;28;20080;-51
2023/12/28 10:16:26;;;;;;;4.53;1.90;;;10.50;99.90;;;;;;5010904;28;20034;-54
2023/12/28 10:18:52;;;;;;;7.40;2.75;;;10.60;99.90;;;;;;5007952;28;20038;-52
2023/12/28 10:21:18;;;;;;;12.43;3.30;;;10.80;99.90;;;;;;5009740;28;20053;-55
2023/12/28 10:23:44;;;;;;;17.77;8.43;;;10.90;99.90;;;;;;5014425;28;20030;-54
2023/12/28 10:26:10;;;;;;;16.42;7.05;;;11.00;99.90;;;;;;5014654;28;20661;-52
2023/12/28 10:28:39;;;;;;;11.32;4.68;;;11.00;99.90;;;;;;5005011;28;20044;-54
2023/12/28 10:31:05;;;;;;;17.30;8.38;;;11.10;99.90;;;;;;5005458;28;20096;-56
2023/12/28 10:33:37;;;;;;;13.15;5.95;;;11.10;99.90;;;;;;5010023;28;20053;-53
2023/12/28 10:36:09;;;;;;;11.80;5.88;;;11.10;99.90;;;;;;4994496;28;20100;-55
2023/12/28 10:38:37;;;;;;;10.73;2.88;;;11.10;99.90;;;;;;5007571;28;20073;-52
2023/12/28 10:41:07;;;;;;;9.85;2.00;;;11.10;99.90;;;;;;5009827;28;20026;-55
2023/12/28 10:44:03;;;;;;;6.07;2.40;;;11.10;99.90;;;;;;5012003;28;20104;-54
2023/12/28 10:46:31;;;;;;;8.68;1.88;;;11.10;99.90;;;;;;5010660;28;20037;-53
2023/12/28 10:49:20;;;;;;;3.90;1.63;;;11.10;99.90;;;;;;5011867;28;20030;-51
2023/12/28 10:51:51;;;;;;;6.25;1.05;;;11.10;99.90;;;;;;5008793;28;20066;-53
2023/12/28 10:54:41;;;;;;;5.68;1.75;;;11.10;99.90;;;;;;5007420;28;20030;-53
2023/12/28 10:57:29;;;;;;;4.05;1.85;;;11.10;99.90;;;;;;5009208;28;20100;-54
2023/12/28 11:00:19;;;;;;;12.75;5.40;;;11.10;99.90;;;;;;5005214;28;20033;-56
2023/12/28 11:02:47;;;;;;;12.93;5.78;;;11.00;99.90;;;;;;5008822;28;20037;-53
2023/12/28 11:05:13;;;;;;;26.23;10.30;;;11.00;99.90;;;;;;5009512;28;20030;-52
2023/12/28 11:07:41;;;;;;;11.90;3.80;;;11.00;99.90;;;;;;4995837;28;20073;-53
2023/12/28 11:10:07;;;;;;;8.02;2.92;;;11.00;99.90;;;;;;5010319;28;20029;-55
2023/12/28 11:12:34;;;;;;;4.70;1.70;;;11.00;99.90;;;;;;5008617;28;20027;-57
2023/12/28 11:14:59;;;;;;;7.50;2.00;;;11.10;99.90;;;;;;5009435;28;20033;-53
2023/12/28 11:17:26;;;;;;;4.90;2.15;;;11.10;99.90;;;;;;5009422;28;20042;-53
2023/12/28 11:19:53;;;;;;;6.13;2.13;;;11.20;99.90;;;;;;5007517;28;20431;-56
2023/12/28 11:22:20;;;;;;;4.72;1.65;;;11.20;99.90;;;;;;5009290;28;20097;-53
2023/12/28 11:24:46;;;;;;;11.52;3.78;;;11.20;99.90;;;;;;4995467;28;20030;-54
2023/12/28 11:27:12;;;;;;;6.32;2.70;;;11.20;99.90;;;;;;5010128;28;20444;-56
2023/12/28 11:29:38;;;;;;;9.13;2.05;;;11.20;99.90;;;;;;5008694;28;20026;-52
2023/12/28 11:32:04;;;;;;;7.28;2.85;;;11.30;99.90;;;;;;5011475;28;20465;-55
2023/12/28 11:34:33;;;;;;;8.43;2.03;;;11.30;99.90;;;;;;5011132;28;20400;-56
2023/12/28 11:37:06;;;;;;;16.15;5.15;;;11.40;99.90;;;;;;5012587;28;20133;-55
2023/12/28 11:39:34;;;;;;;7.15;2.22;;;11.30;99.90;;;;;;5010495;28;20034;-55
2023/12/28 11:42:04;;;;;;;3.90;1.40;;;11.40;99.90;;;;;;5016862;28;20029;-56
2023/12/28 11:44:31;;;;;;;5.75;2.10;;;11.40;99.90;;;;;;5012922;28;20017;-54
2023/12/28 11:46:57;;;;;;;8.80;1.83;;;11.40;99.90;;;;;;5013031;28;20030;-53
2023/12/28 11:49:29;;;;;;;8.13;2.40;;;11.40;99.90;;;;;;5013153;28;20056;-53
2023/12/28 11:51:57;;;;;;;4.00;1.38;;;11.40;99.90;;;;;;5010960;28;20029;-55
2023/12/28 11:54:25;;;;;;;8.98;1.80;;;11.40;99.90;;;;;;5008275;28;20031;-54
2023/12/28 11:56:52;;;;;;;4.13;2.45;;;11.40;99.90;;;;;;5011544;28;20045;-50
2023/12/28 11:59:18;;;;;;;4.65;1.90;;;11.40;99.90;;;;;;5009238;28;20045;-51
2023/12/28 12:01:43;;;;;;;7.57;1.88;;;11.50;99.90;;;;;;5011138;28;20476;-51
2023/12/28 12:04:10;;;;;;;12.02;1.92;;;11.50;99.90;;;;;;5013890;28;20022;-51
2023/12/28 12:06:36;;;;;;;8.23;1.55;;;11.50;99.90;;;;;;5012529;28;20033;-50
2023/12/28 12:09:02;;;;;;;5.22;2.40;;;11.50;99.90;;;;;;5009871;28;20484;-51
2023/12/28 12:11:28;;;;;;;12.30;4.13;;;11.60;99.90;;;;;;5016065;28;20100;-53
2023/12/28 12:13:55;;;;;;;10.60;2.20;;;11.60;99.90;;;;;;5012109;28;20041;-56
2023/12/28 12:16:20;;;;;;;12.80;3.13;;;11.50;99.90;;;;;;5013504;28;20038;-51
2023/12/28 12:18:46;;;;;;;15.00;5.15;;;11.50;99.90;;;;;;5011386;28;20037;-55
2023/12/28 12:21:12;;;;;;;14.93;5.43;;;11.50;99.90;;;;;;5011099;28;20021;-51
2023/12/28 12:23:37;;;;;;;9.73;2.75;;;11.50;99.90;;;;;;5014098;28;20037;-56
2023/12/28 12:26:07;;;;;;;10.02;3.72;;;11.50;99.90;;;;;;5010968;28;20017;-53
2023/12/28 12:28:33;;;;;;;18.73;6.82;;;11.50;99.90;;;;;;5009094;28;20033;-54
2023/12/28 12:31:02;;;;;;;11.27;4.07;;;11.50;99.90;;;;;;5011807;28;20034;-51
2023/12/28 12:33:28;;;;;;;20.27;8.38;;;11.50;99.90;;;;;;5011380;28;20499;-54
2023/12/28 12:35:54;;;;;;;18.38;5.95;;;11.50;99.90;;;;;;5013674;28;20065;-54
2023/12/28 12:38:20;;;;;;;36.33;12.07;;;11.60;99.90;;;;;;5012893;28;20042;-53
2023/12/28 12:40:45;;;;;;;14.07;5.78;;;11.60;99.90;;;;;;5011866;28;20064;-56
2023/12/28 12:43:11;;;;;;;5.38;2.10;;;11.60;99.90;;;;;;5011688;28;20026;-52
2023/12/28 12:45:37;;;;;;;5.80;2.42;;;11.60;99.90;;;;;;5011775;28;20072;-52
2023/12/28 12:48:04;;;;;;;6.53;1.73;;;11.70;99.90;;;;;;5014040;28;20030;-56
2023/12/28 12:50:33;;;;;;;3.83;0.93;;;11.80;99.90;;;;;;5012488;28;20459;-52